sensor_id;sensor_type;location;lat;lon;timestamp;temperature;humidity
65245;DHT22;51846;48.692;2.382;2023-10-13T00:00:33;18.92;85.07
65245;DHT22;51846;48.692;2.382;2023-10-13T00:03:03;18.97;84.96
65245;DHT22;51846;48.692;2.382;2023-10-13T00:05:29;19.13;84.61
65245;DHT22;51846;48.692;2.382;2023-10-13T00:07:57;19.31;83.90
65245;DHT22;51846;48.692;2.382;2023-10-13T00:10:27;19.41;83.76
65245;DHT22;51846;48.692;2.382;2023-10-13T00:12:52;19.48;83.49
65245;DHT22;51846;48.692;2.382;2023-10-13T00:15:18;19.50;83.26
65245;DHT22;51846;48.692;2.382;2023-10-13T00:17:46;19.46;83.50
65245;DHT22;51846;48.692;2.382;2023-10-13T00:20:11;19.44;83.38
65245;DHT22;51846;48.692;2.382;2023-10-13T00:22:42;19.13;84.17
65245;DHT22;51846;48.692;2.382;2023-10-13T00:25:09;19.07;84.54
65245;DHT22;51846;48.692;2.382;2023-10-13T00:27:43;19.21;84.16
65245;DHT22;51846;48.692;2.382;2023-10-13T00:30:09;19.11;84.41
65245;DHT22;51846;48.692;2.382;2023-10-13T00:32:44;19.02;84.68
65245;DHT22;51846;48.692;2.382;2023-10-13T00:35:12;18.99;84.89
65245;DHT22;51846;48.692;2.382;2023-10-13T00:37:40;19.02;84.92
65245;DHT22;51846;48.692;2.382;2023-10-13T00:40:11;19.24;84.03
65245;DHT22;51846;48.692;2.382;2023-10-13T00:43:00;19.17;84.40
65245;DHT22;51846;48.692;2.382;2023-10-13T00:48:33;19.31;83.75
65245;DHT22;51846;48.692;2.382;2023-10-13T00:51:04;19.27;83.67
65245;DHT22;51846;48.692;2.382;2023-10-13T00:53:35;19.41;83.43
65245;DHT22;51846;48.692;2.382;2023-10-13T00:56:03;19.24;84.09
65245;DHT22;51846;48.692;2.382;2023-10-13T00:58:44;19.31;83.69
65245;DHT22;51846;48.692;2.382;2023-10-13T01:01:11;19.21;83.92
65245;DHT22;51846;48.692;2.382;2023-10-13T01:03:52;19.35;83.58
65245;DHT22;51846;48.692;2.382;2023-10-13T01:06:25;19.39;83.41
65245;DHT22;51846;48.692;2.382;2023-10-13T01:09:00;19.30;83.61
65245;DHT22;51846;48.692;2.382;2023-10-13T01:11:40;19.14;84.29
65245;DHT22;51846;48.692;2.382;2023-10-13T01:14:05;19.24;83.85
65245;DHT22;51846;48.692;2.382;2023-10-13T01:16:31;19.17;84.12
65245;DHT22;51846;48.692;2.382;2023-10-13T01:18:56;19.31;83.60
65245;DHT22;51846;48.692;2.382;2023-10-13T01:21:25;19.32;83.49
65245;DHT22;51846;48.692;2.382;2023-10-13T01:23:53;19.37;83.45
65245;DHT22;51846;48.692;2.382;2023-10-13T01:26:18;19.08;84.15
65245;DHT22;51846;48.692;2.382;2023-10-13T01:28:58;18.99;84.50
65245;DHT22;51846;48.692;2.382;2023-10-13T01:31:24;19.03;84.48
65245;DHT22;51846;48.692;2.382;2023-10-13T01:33:54;19.17;84.01
65245;DHT22;51846;48.692;2.382;2023-10-13T01:36:26;19.20;83.60
65245;DHT22;51846;48.692;2.382;2023-10-13T01:38:52;19.04;84.39
65245;DHT22;51846;48.692;2.382;2023-10-13T01:41:20;18.97;84.67
65245;DHT22;51846;48.692;2.382;2023-10-13T01:43:46;18.87;85.10
65245;DHT22;51846;48.692;2.382;2023-10-13T01:46:11;18.79;85.35
65245;DHT22;51846;48.692;2.382;2023-10-13T01:48:41;18.82;85.35
65245;DHT22;51846;48.692;2.382;2023-10-13T01:51:07;18.82;85.42
65245;DHT22;51846;48.692;2.382;2023-10-13T01:53:39;18.90;85.14
65245;DHT22;51846;48.692;2.382;2023-10-13T01:56:05;18.92;85.00
65245;DHT22;51846;48.692;2.382;2023-10-13T01:58:38;18.83;85.22
65245;DHT22;51846;48.692;2.382;2023-10-13T02:01:08;18.82;85.40
65245;DHT22;51846;48.692;2.382;2023-10-13T02:03:35;19.02;84.77
65245;DHT22;51846;48.692;2.382;2023-10-13T02:06:06;19.13;84.24
65245;DHT22;51846;48.692;2.382;2023-10-13T02:08:35;19.23;83.82
65245;DHT22;51846;48.692;2.382;2023-10-13T02:11:05;19.30;83.62
65245;DHT22;51846;48.692;2.382;2023-10-13T02:13:32;19.32;83.62
65245;DHT22;51846;48.692;2.382;2023-10-13T02:15:58;19.34;83.39
65245;DHT22;51846;48.692;2.382;2023-10-13T02:18:28;19.32;83.37
65245;DHT22;51846;48.692;2.382;2023-10-13T02:21:03;19.32;83.41
65245;DHT22;51846;48.692;2.382;2023-10-13T02:23:37;19.32;83.36
65245;DHT22;51846;48.692;2.382;2023-10-13T02:26:08;19.30;83.52
65245;DHT22;51846;48.692;2.382;2023-10-13T02:28:39;19.30;83.60
65245;DHT22;51846;48.692;2.382;2023-10-13T02:31:05;19.26;83.75
65245;DHT22;51846;48.692;2.382;2023-10-13T02:33:32;19.23;83.80
65245;DHT22;51846;48.692;2.382;2023-10-13T02:35:59;19.23;83.94
65245;DHT22;51846;48.692;2.382;2023-10-13T02:38:29;19.07;84.57
65245;DHT22;51846;48.692;2.382;2023-10-13T02:41:15;18.99;84.46
65245;DHT22;51846;48.692;2.382;2023-10-13T02:43:45;19.02;84.37
65245;DHT22;51846;48.692;2.382;2023-10-13T02:46:11;19.11;84.28
65245;DHT22;51846;48.692;2.382;2023-10-13T02:48:36;19.14;84.07
65245;DHT22;51846;48.692;2.382;2023-10-13T02:51:22;19.16;84.16
65245;DHT22;51846;48.692;2.382;2023-10-13T02:53:55;19.14;84.04
65245;DHT22;51846;48.692;2.382;2023-10-13T02:56:27;19.16;83.95
65245;DHT22;51846;48.692;2.382;2023-10-13T02:58:53;19.14;83.83
65245;DHT22;51846;48.692;2.382;2023-10-13T03:01:19;19.13;83.84
65245;DHT22;51846;48.692;2.382;2023-10-13T03:03:50;19.10;83.88
65245;DHT22;51846;48.692;2.382;2023-10-13T03:06:19;19.06;83.95
65245;DHT22;51846;48.692;2.382;2023-10-13T03:09:17;18.99;84.13
65245;DHT22;51846;48.692;2.382;2023-10-13T03:11:44;18.96;84.35
65245;DHT22;51846;48.692;2.382;2023-10-13T03:14:17;18.84;84.54
65245;DHT22;51846;48.692;2.382;2023-10-13T03:16:56;18.89;84.68
65245;DHT22;51846;48.692;2.382;2023-10-13T03:19:28;18.76;84.66
65245;DHT22;51846;48.692;2.382;2023-10-13T03:22:03;18.79;84.67
65245;DHT22;51846;48.692;2.382;2023-10-13T03:24:37;18.67;84.04
65245;DHT22;51846;48.692;2.382;2023-10-13T03:27:10;18.56;84.06
65245;DHT22;51846;48.692;2.382;2023-10-13T03:29:38;18.57;84.41
65245;DHT22;51846;48.692;2.382;2023-10-13T03:32:18;18.56;83.72
65245;DHT22;51846;48.692;2.382;2023-10-13T03:34:45;18.63;82.92
65245;DHT22;51846;48.692;2.382;2023-10-13T03:37:37;18.66;82.67
65245;DHT22;51846;48.692;2.382;2023-10-13T03:40:07;18.69;82.49
65245;DHT22;51846;48.692;2.382;2023-10-13T03:42:52;18.80;82.00
65245;DHT22;51846;48.692;2.382;2023-10-13T03:48:09;18.72;81.57
65245;DHT22;51846;48.692;2.382;2023-10-13T03:50:37;18.74;81.81
65245;DHT22;51846;48.692;2.382;2023-10-13T03:53:12;18.72;81.47
65245;DHT22;51846;48.692;2.382;2023-10-13T03:55:38;18.69;81.19
65245;DHT22;51846;48.692;2.382;2023-10-13T03:58:04;18.67;81.28
65245;DHT22;51846;48.692;2.382;2023-10-13T04:00:30;18.76;80.21
65245;DHT22;51846;48.692;2.382;2023-10-13T04:02:57;18.73;80.25
65245;DHT22;51846;48.692;2.382;2023-10-13T04:05:31;18.66;80.33
65245;DHT22;51846;48.692;2.382;2023-10-13T04:08:03;18.67;79.69
65245;DHT22;51846;48.692;2.382;2023-10-13T04:10:47;18.67;78.72
65245;DHT22;51846;48.692;2.382;2023-10-13T04:13:19;18.70;77.87
65245;DHT22;51846;48.692;2.382;2023-10-13T04:16:04;18.72;77.77
65245;DHT22;51846;48.692;2.382;2023-10-13T04:18:48;18.72;77.07
65245;DHT22;51846;48.692;2.382;2023-10-13T04:21:23;18.72;77.08
65245;DHT22;51846;48.692;2.382;2023-10-13T04:24:08;18.67;76.78
65245;DHT22;51846;48.692;2.382;2023-10-13T04:26:42;18.69;76.78
65245;DHT22;51846;48.692;2.382;2023-10-13T04:29:27;18.70;76.58
65245;DHT22;51846;48.692;2.382;2023-10-13T04:32:11;18.63;76.64
65245;DHT22;51846;48.692;2.382;2023-10-13T04:34:40;18.62;76.47
65245;DHT22;51846;48.692;2.382;2023-10-13T04:37:10;18.62;76.36
65245;DHT22;51846;48.692;2.382;2023-10-13T04:39:48;18.59;76.33
65245;DHT22;51846;48.692;2.382;2023-10-13T04:42:21;18.56;76.35
65245;DHT22;51846;48.692;2.382;2023-10-13T04:45:06;18.56;76.41
65245;DHT22;51846;48.692;2.382;2023-10-13T04:47:51;18.57;76.13
65245;DHT22;51846;48.692;2.382;2023-10-13T04:50:22;18.62;76.28
65245;DHT22;51846;48.692;2.382;2023-10-13T04:52:52;18.56;76.28
65245;DHT22;51846;48.692;2.382;2023-10-13T04:55:27;18.57;76.56
65245;DHT22;51846;48.692;2.382;2023-10-13T04:58:13;18.55;76.40
65245;DHT22;51846;48.692;2.382;2023-10-13T05:01:00;18.52;76.41
65245;DHT22;51846;48.692;2.382;2023-10-13T05:03:45;18.53;76.47
65245;DHT22;51846;48.692;2.382;2023-10-13T05:06:29;18.53;76.41
65245;DHT22;51846;48.692;2.382;2023-10-13T05:09:10;18.52;76.54
65245;DHT22;51846;48.692;2.382;2023-10-13T05:11:54;18.50;76.59
65245;DHT22;51846;48.692;2.382;2023-10-13T05:14:38;18.52;76.67
65245;DHT22;51846;48.692;2.382;2023-10-13T05:17:22;18.53;76.51
65245;DHT22;51846;48.692;2.382;2023-10-13T05:20:07;18.52;76.61
65245;DHT22;51846;48.692;2.382;2023-10-13T05:23:11;18.53;76.78
65245;DHT22;51846;48.692;2.382;2023-10-13T05:25:54;18.55;76.64
65245;DHT22;51846;48.692;2.382;2023-10-13T05:28:38;18.55;76.71
65245;DHT22;51846;48.692;2.382;2023-10-13T05:31:22;18.55;76.97
65245;DHT22;51846;48.692;2.382;2023-10-13T05:34:06;18.59;76.59
65245;DHT22;51846;48.692;2.382;2023-10-13T05:36:50;18.57;76.91
65245;DHT22;51846;48.692;2.382;2023-10-13T05:39:34;18.57;76.87
65245;DHT22;51846;48.692;2.382;2023-10-13T05:42:18;18.56;76.87
65245;DHT22;51846;48.692;2.382;2023-10-13T05:45:02;18.59;76.85
65245;DHT22;51846;48.692;2.382;2023-10-13T05:47:49;18.62;76.56
65245;DHT22;51846;48.692;2.382;2023-10-13T05:50:26;18.63;76.69
65245;DHT22;51846;48.692;2.382;2023-10-13T05:52:51;18.59;76.87
65245;DHT22;51846;48.692;2.382;2023-10-13T05:55:27;18.63;76.71
65245;DHT22;51846;48.692;2.382;2023-10-13T05:58:12;18.59;76.62
65245;DHT22;51846;48.692;2.382;2023-10-13T06:00:56;18.62;76.71
65245;DHT22;51846;48.692;2.382;2023-10-13T06:03:40;18.63;76.56
65245;DHT22;51846;48.692;2.382;2023-10-13T06:06:24;18.62;76.63
65245;DHT22;51846;48.692;2.382;2023-10-13T06:09:08;18.55;77.96
65245;DHT22;51846;48.692;2.382;2023-10-13T06:11:52;18.50;78.64
65245;DHT22;51846;48.692;2.382;2023-10-13T06:14:36;18.50;77.57
65245;DHT22;51846;48.692;2.382;2023-10-13T06:17:20;18.50;77.27
65245;DHT22;51846;48.692;2.382;2023-10-13T06:20:05;18.49;77.72
65245;DHT22;51846;48.692;2.382;2023-10-13T06:22:50;18.50;77.26
65245;DHT22;51846;48.692;2.382;2023-10-13T06:25:34;18.53;77.09
65245;DHT22;51846;48.692;2.382;2023-10-13T06:28:18;18.56;76.78
65245;DHT22;51846;48.692;2.382;2023-10-13T06:31:04;18.55;76.74
65245;DHT22;51846;48.692;2.382;2023-10-13T06:33:33;18.62;76.60
65245;DHT22;51846;48.692;2.382;2023-10-13T06:36:01;18.60;76.63
65245;DHT22;51846;48.692;2.382;2023-10-13T06:38:26;18.64;76.13
65245;DHT22;51846;48.692;2.382;2023-10-13T06:40:57;18.64;76.20
65245;DHT22;51846;48.692;2.382;2023-10-13T06:43:22;18.69;76.12
65245;DHT22;51846;48.692;2.382;2023-10-13T06:45:49;18.69;76.33
65245;DHT22;51846;48.692;2.382;2023-10-13T06:48:27;18.69;76.19
65245;DHT22;51846;48.692;2.382;2023-10-13T06:50:53;18.73;75.13
65245;DHT22;51846;48.692;2.382;2023-10-13T06:53:21;18.77;74.99
65245;DHT22;51846;48.692;2.382;2023-10-13T06:55:47;18.80;75.22
65245;DHT22;51846;48.692;2.382;2023-10-13T06:58:13;18.86;75.02
65245;DHT22;51846;48.692;2.382;2023-10-13T07:00:42;18.83;75.11
65245;DHT22;51846;48.692;2.382;2023-10-13T07:03:22;18.82;74.54
65245;DHT22;51846;48.692;2.382;2023-10-13T07:05:47;18.84;74.18
65245;DHT22;51846;48.692;2.382;2023-10-13T07:08:13;18.92;74.04
65245;DHT22;51846;48.692;2.382;2023-10-13T07:10:55;18.97;73.44
65245;DHT22;51846;48.692;2.382;2023-10-13T07:13:43;19.02;73.27
65245;DHT22;51846;48.692;2.382;2023-10-13T07:16:15;19.10;72.79
65245;DHT22;51846;48.692;2.382;2023-10-13T07:18:41;19.08;72.91
65245;DHT22;51846;48.692;2.382;2023-10-13T07:21:18;19.10;72.70
65245;DHT22;51846;48.692;2.382;2023-10-13T07:23:56;19.14;72.63
65245;DHT22;51846;48.692;2.382;2023-10-13T07:26:35;19.17;72.54
65245;DHT22;51846;48.692;2.382;2023-10-13T07:29:01;19.17;72.70
65245;DHT22;51846;48.692;2.382;2023-10-13T07:31:26;19.16;72.53
65245;DHT22;51846;48.692;2.382;2023-10-13T07:33:52;19.23;71.82
65245;DHT22;51846;48.692;2.382;2023-10-13T07:36:22;19.24;71.54
65245;DHT22;51846;48.692;2.382;2023-10-13T07:38:58;19.30;71.36
65245;DHT22;51846;48.692;2.382;2023-10-13T07:41:42;19.31;71.92
65245;DHT22;51846;48.692;2.382;2023-10-13T07:44:07;19.34;71.58
65245;DHT22;51846;48.692;2.382;2023-10-13T07:46:33;19.38;71.94
65245;DHT22;51846;48.692;2.382;2023-10-13T07:49:00;19.46;70.87
65245;DHT22;51846;48.692;2.382;2023-10-13T07:51:34;19.47;70.92
65245;DHT22;51846;48.692;2.382;2023-10-13T07:54:10;19.50;71.20
65245;DHT22;51846;48.692;2.382;2023-10-13T07:56:36;19.55;70.38
65245;DHT22;51846;48.692;2.382;2023-10-13T07:59:05;19.64;70.03
65245;DHT22;51846;48.692;2.382;2023-10-13T08:01:31;19.62;70.30
65245;DHT22;51846;48.692;2.382;2023-10-13T08:03:57;19.74;69.23
65245;DHT22;51846;48.692;2.382;2023-10-13T08:06:40;19.86;68.99
65245;DHT22;51846;48.692;2.382;2023-10-13T08:09:07;19.88;69.25
65245;DHT22;51846;48.692;2.382;2023-10-13T08:11:33;19.92;68.82
65245;DHT22;51846;48.692;2.382;2023-10-13T08:14:06;19.91;69.03
65245;DHT22;51846;48.692;2.382;2023-10-13T08:16:41;19.93;68.84
65245;DHT22;51846;48.692;2.382;2023-10-13T08:19:27;19.98;68.57
65245;DHT22;51846;48.692;2.382;2023-10-13T08:21:54;19.99;68.67
65245;DHT22;51846;48.692;2.382;2023-10-13T08:24:26;20.05;68.23
65245;DHT22;51846;48.692;2.382;2023-10-13T08:27:18;20.09;67.85
65245;DHT22;51846;48.692;2.382;2023-10-13T08:30:00;20.13;67.88
65245;DHT22;51846;48.692;2.382;2023-10-13T08:32:28;20.16;67.81
65245;DHT22;51846;48.692;2.382;2023-10-13T08:34:58;20.26;67.29
65245;DHT22;51846;48.692;2.382;2023-10-13T08:37:34;20.34;66.72
65245;DHT22;51846;48.692;2.382;2023-10-13T08:40:23;20.37;66.61
65245;DHT22;51846;48.692;2.382;2023-10-13T08:43:12;20.40;66.73
65245;DHT22;51846;48.692;2.382;2023-10-13T08:45:41;20.43;66.73
65245;DHT22;51846;48.692;2.382;2023-10-13T08:48:09;20.52;66.70
65245;DHT22;51846;48.692;2.382;2023-10-13T08:50:41;20.70;65.85
65245;DHT22;51846;48.692;2.382;2023-10-13T08:53:24;20.88;65.77
65245;DHT22;51846;48.692;2.382;2023-10-13T08:56:02;21.00;65.26
65245;DHT22;51846;48.692;2.382;2023-10-13T08:58:32;21.15;65.01
65245;DHT22;51846;48.692;2.382;2023-10-13T09:01:16;21.23;65.06
65245;DHT22;51846;48.692;2.382;2023-10-13T09:04:01;21.31;64.71
65245;DHT22;51846;48.692;2.382;2023-10-13T09:06:49;21.34;64.78
65245;DHT22;51846;48.692;2.382;2023-10-13T09:09:44;21.48;64.47
65245;DHT22;51846;48.692;2.382;2023-10-13T09:12:28;21.75;63.17
65245;DHT22;51846;48.692;2.382;2023-10-13T09:15:01;21.77;63.47
65245;DHT22;51846;48.692;2.382;2023-10-13T09:17:47;21.78;63.22
65245;DHT22;51846;48.692;2.382;2023-10-13T09:20:15;21.83;63.04
65245;DHT22;51846;48.692;2.382;2023-10-13T09:22:51;21.95;63.17
65245;DHT22;51846;48.692;2.382;2023-10-13T09:25:38;22.15;62.33
65245;DHT22;51846;48.692;2.382;2023-10-13T09:28:11;22.20;62.21
65245;DHT22;51846;48.692;2.382;2023-10-13T09:31:01;22.22;62.03
65245;DHT22;51846;48.692;2.382;2023-10-13T09:33:27;22.13;62.49
65245;DHT22;51846;48.692;2.382;2023-10-13T09:36:06;22.12;62.41
65245;DHT22;51846;48.692;2.382;2023-10-13T09:38:38;22.08;62.62
65245;DHT22;51846;48.692;2.382;2023-10-13T09:41:12;22.13;62.73
65245;DHT22;51846;48.692;2.382;2023-10-13T09:43:44;22.22;62.36
65245;DHT22;51846;48.692;2.382;2023-10-13T09:46:19;22.35;62.16
65245;DHT22;51846;48.692;2.382;2023-10-13T09:48:49;22.40;61.98
65245;DHT22;51846;48.692;2.382;2023-10-13T09:51:30;22.76;60.35
65245;DHT22;51846;48.692;2.382;2023-10-13T09:54:06;22.78;59.72
65245;DHT22;51846;48.692;2.382;2023-10-13T09:56:42;22.87;59.36
65245;DHT22;51846;48.692;2.382;2023-10-13T09:59:20;23.07;58.85
65245;DHT22;51846;48.692;2.382;2023-10-13T10:01:48;23.14;58.41
65245;DHT22;51846;48.692;2.382;2023-10-13T10:04:18;23.24;58.48
65245;DHT22;51846;48.692;2.382;2023-10-13T10:06:58;23.37;57.60
65245;DHT22;51846;48.692;2.382;2023-10-13T10:09:31;23.45;58.19
65245;DHT22;51846;48.692;2.382;2023-10-13T10:14:59;23.72;58.00
65245;DHT22;51846;48.692;2.382;2023-10-13T10:17:29;23.66;57.74
65245;DHT22;51846;48.692;2.382;2023-10-13T10:19:55;23.88;56.94
65245;DHT22;51846;48.692;2.382;2023-10-13T10:22:32;24.06;56.34
65245;DHT22;51846;48.692;2.382;2023-10-13T10:24:59;24.06;56.15
65245;DHT22;51846;48.692;2.382;2023-10-13T10:27:28;24.25;56.11
65245;DHT22;51846;48.692;2.382;2023-10-13T10:29:55;24.52;54.74
65245;DHT22;51846;48.692;2.382;2023-10-13T10:32:31;24.56;53.77
65245;DHT22;51846;48.692;2.382;2023-10-13T10:35:06;24.68;54.16
65245;DHT22;51846;48.692;2.382;2023-10-13T10:37:40;24.67;54.21
65245;DHT22;51846;48.692;2.382;2023-10-13T10:40:15;24.63;54.69
65245;DHT22;51846;48.692;2.382;2023-10-13T10:43:11;24.84;53.77
65245;DHT22;51846;48.692;2.382;2023-10-13T10:45:46;25.01;53.33
65245;DHT22;51846;48.692;2.382;2023-10-13T10:48:12;25.06;52.87
65245;DHT22;51846;48.692;2.382;2023-10-13T10:50:55;25.11;52.64
65245;DHT22;51846;48.692;2.382;2023-10-13T10:53:24;25.32;52.70
65245;DHT22;51846;48.692;2.382;2023-10-13T10:56:12;25.25;51.86
65245;DHT22;51846;48.692;2.382;2023-10-13T10:58:55;25.17;52.81
65245;DHT22;51846;48.692;2.382;2023-10-13T11:01:25;25.15;51.83
65245;DHT22;51846;48.692;2.382;2023-10-13T11:04:00;25.10;51.32
65245;DHT22;51846;48.692;2.382;2023-10-13T11:06:54;25.04;51.28
65245;DHT22;51846;48.692;2.382;2023-10-13T11:09:27;24.98;52.36
65245;DHT22;51846;48.692;2.382;2023-10-13T11:11:57;24.86;52.23
65245;DHT22;51846;48.692;2.382;2023-10-13T11:14:27;24.84;51.98
65245;DHT22;51846;48.692;2.382;2023-10-13T11:16:55;24.76;52.95
65245;DHT22;51846;48.692;2.382;2023-10-13T11:19:35;24.71;53.26
65245;DHT22;51846;48.692;2.382;2023-10-13T11:22:17;24.77;52.91
65245;DHT22;51846;48.692;2.382;2023-10-13T11:25:07;24.59;53.66
65245;DHT22;51846;48.692;2.382;2023-10-13T11:27:38;24.55;53.66
65245;DHT22;51846;48.692;2.382;2023-10-13T11:30:19;24.46;53.88
65245;DHT22;51846;48.692;2.382;2023-10-13T11:33:00;24.40;53.88
65245;DHT22;51846;48.692;2.382;2023-10-13T11:35:25;24.32;54.41
65245;DHT22;51846;48.692;2.382;2023-10-13T11:37:54;24.30;54.56
65245;DHT22;51846;48.692;2.382;2023-10-13T11:40:31;24.37;54.76
65245;DHT22;51846;48.692;2.382;2023-10-13T11:43:11;24.35;54.73
65245;DHT22;51846;48.692;2.382;2023-10-13T11:45:48;24.36;54.97
65245;DHT22;51846;48.692;2.382;2023-10-13T11:48:32;24.40;54.99
65245;DHT22;51846;48.692;2.382;2023-10-13T11:51:11;24.43;55.19
65245;DHT22;51846;48.692;2.382;2023-10-13T11:53:44;24.43;55.87
65245;DHT22;51846;48.692;2.382;2023-10-13T11:56:21;24.41;56.57
65245;DHT22;51846;48.692;2.382;2023-10-13T11:58:48;24.35;55.77
65245;DHT22;51846;48.692;2.382;2023-10-13T12:01:17;24.33;55.85
65245;DHT22;51846;48.692;2.382;2023-10-13T12:03:44;24.29;56.44
65245;DHT22;51846;48.692;2.382;2023-10-13T12:06:31;24.22;56.82
65245;DHT22;51846;48.692;2.382;2023-10-13T12:09:09;24.19;57.07
65245;DHT22;51846;48.692;2.382;2023-10-13T12:11:49;24.26;56.93
65245;DHT22;51846;48.692;2.382;2023-10-13T12:14:20;24.25;56.95
65245;DHT22;51846;48.692;2.382;2023-10-13T12:16:49;24.33;56.56
65245;DHT22;51846;48.692;2.382;2023-10-13T12:19:19;24.37;56.10
65245;DHT22;51846;48.692;2.382;2023-10-13T12:21:52;24.43;56.66
65245;DHT22;51846;48.692;2.382;2023-10-13T12:24:22;24.41;56.78
65245;DHT22;51846;48.692;2.382;2023-10-13T12:27:06;24.49;56.37
65245;DHT22;51846;48.692;2.382;2023-10-13T12:29:45;24.59;55.80
65245;DHT22;51846;48.692;2.382;2023-10-13T12:32:12;24.66;56.08
65245;DHT22;51846;48.692;2.382;2023-10-13T12:34:38;24.67;56.48
65245;DHT22;51846;48.692;2.382;2023-10-13T12:37:32;24.73;54.98
65245;DHT22;51846;48.692;2.382;2023-10-13T12:40:27;24.76;54.75
65245;DHT22;51846;48.692;2.382;2023-10-13T12:43:11;24.84;54.47
65245;DHT22;51846;48.692;2.382;2023-10-13T12:45:55;24.92;54.58
65245;DHT22;51846;48.692;2.382;2023-10-13T12:48:39;24.95;54.52
65245;DHT22;51846;48.692;2.382;2023-10-13T12:51:23;25.08;53.93
65245;DHT22;51846;48.692;2.382;2023-10-13T12:53:58;25.20;54.05
65245;DHT22;51846;48.692;2.382;2023-10-13T12:56:49;25.21;53.82
65245;DHT22;51846;48.692;2.382;2023-10-13T12:59:22;25.32;54.07
65245;DHT22;51846;48.692;2.382;2023-10-13T13:01:52;25.38;53.79
65245;DHT22;51846;48.692;2.382;2023-10-13T13:04:18;25.42;52.90
65245;DHT22;51846;48.692;2.382;2023-10-13T13:06:46;25.43;53.88
65245;DHT22;51846;48.692;2.382;2023-10-13T13:09:12;25.48;52.84
65245;DHT22;51846;48.692;2.382;2023-10-13T13:11:38;25.39;53.38
65245;DHT22;51846;48.692;2.382;2023-10-13T13:14:06;25.30;52.98
65245;DHT22;51846;48.692;2.382;2023-10-13T13:16:33;25.24;53.28
65245;DHT22;51846;48.692;2.382;2023-10-13T13:18:59;25.25;53.48
65245;DHT22;51846;48.692;2.382;2023-10-13T13:21:28;25.20;53.43
65245;DHT22;51846;48.692;2.382;2023-10-13T13:23:53;25.22;53.17
65245;DHT22;51846;48.692;2.382;2023-10-13T13:26:20;25.12;52.93
65245;DHT22;51846;48.692;2.382;2023-10-13T13:28:48;25.07;53.78
65245;DHT22;51846;48.692;2.382;2023-10-13T13:31:16;25.08;54.15
65245;DHT22;51846;48.692;2.382;2023-10-13T13:33:42;25.14;53.92
65245;DHT22;51846;48.692;2.382;2023-10-13T13:36:09;25.07;54.23
65245;DHT22;51846;48.692;2.382;2023-10-13T13:38:41;24.98;54.29
65245;DHT22;51846;48.692;2.382;2023-10-13T13:41:13;25.04;54.01
65245;DHT22;51846;48.692;2.382;2023-10-13T13:43:45;25.04;54.09
65245;DHT22;51846;48.692;2.382;2023-10-13T13:46:11;24.98;54.31
65245;DHT22;51846;48.692;2.382;2023-10-13T13:48:37;24.94;54.49
65245;DHT22;51846;48.692;2.382;2023-10-13T13:51:04;25.01;54.68
65245;DHT22;51846;48.692;2.382;2023-10-13T13:53:31;24.98;54.25
65245;DHT22;51846;48.692;2.382;2023-10-13T13:56:03;24.97;54.66
65245;DHT22;51846;48.692;2.382;2023-10-13T13:58:29;24.90;54.20
65245;DHT22;51846;48.692;2.382;2023-10-13T14:01:01;24.88;54.17
65245;DHT22;51846;48.692;2.382;2023-10-13T14:03:40;24.88;54.47
65245;DHT22;51846;48.692;2.382;2023-10-13T14:08:47;24.88;53.61
65245;DHT22;51846;48.692;2.382;2023-10-13T14:11:26;24.95;53.41
65245;DHT22;51846;48.692;2.382;2023-10-13T14:14:07;24.92;53.72
65245;DHT22;51846;48.692;2.382;2023-10-13T14:16:46;24.91;53.69
65245;DHT22;51846;48.692;2.382;2023-10-13T14:19:13;24.98;53.47
65245;DHT22;51846;48.692;2.382;2023-10-13T14:21:55;25.00;53.72
65245;DHT22;51846;48.692;2.382;2023-10-13T14:24:22;24.97;53.84
65245;DHT22;51846;48.692;2.382;2023-10-13T14:26:57;24.97;54.10
65245;DHT22;51846;48.692;2.382;2023-10-13T14:29:32;25.00;53.92
65245;DHT22;51846;48.692;2.382;2023-10-13T14:31:58;25.00;53.61
65245;DHT22;51846;48.692;2.382;2023-10-13T14:34:24;24.97;53.53
65245;DHT22;51846;48.692;2.382;2023-10-13T14:36:52;24.94;53.62
65245;DHT22;51846;48.692;2.382;2023-10-13T14:39:19;24.94;53.71
65245;DHT22;51846;48.692;2.382;2023-10-13T14:41:46;24.94;53.91
65245;DHT22;51846;48.692;2.382;2023-10-13T14:44:16;24.86;53.81
65245;DHT22;51846;48.692;2.382;2023-10-13T14:46:41;24.81;54.24
65245;DHT22;51846;48.692;2.382;2023-10-13T14:49:07;24.91;53.83
65245;DHT22;51846;48.692;2.382;2023-10-13T14:51:33;24.87;54.15
65245;DHT22;51846;48.692;2.382;2023-10-13T14:53:59;24.87;54.04
65245;DHT22;51846;48.692;2.382;2023-10-13T14:56:26;24.87;53.95
65245;DHT22;51846;48.692;2.382;2023-10-13T14:58:53;24.84;53.91
65245;DHT22;51846;48.692;2.382;2023-10-13T15:01:21;24.81;54.20
65245;DHT22;51846;48.692;2.382;2023-10-13T15:03:48;24.81;54.11
65245;DHT22;51846;48.692;2.382;2023-10-13T15:06:19;24.77;54.46
65245;DHT22;51846;48.692;2.382;2023-10-13T15:08:46;24.78;54.38
65245;DHT22;51846;48.692;2.382;2023-10-13T15:11:15;24.83;54.14
65245;DHT22;51846;48.692;2.382;2023-10-13T15:13:43;24.78;54.44
65245;DHT22;51846;48.692;2.382;2023-10-13T15:16:16;24.83;54.63
65245;DHT22;51846;48.692;2.382;2023-10-13T15:18:46;24.78;54.92
65245;DHT22;51846;48.692;2.382;2023-10-13T15:21:18;24.77;54.72
65245;DHT22;51846;48.692;2.382;2023-10-13T15:23:44;24.80;54.91
65245;DHT22;51846;48.692;2.382;2023-10-13T15:26:10;24.77;55.11
65245;DHT22;51846;48.692;2.382;2023-10-13T15:28:39;24.76;55.36
65245;DHT22;51846;48.692;2.382;2023-10-13T15:31:14;24.73;55.26
65245;DHT22;51846;48.692;2.382;2023-10-13T15:34:08;24.68;55.38
65245;DHT22;51846;48.692;2.382;2023-10-13T15:36:40;24.67;55.29
65245;DHT22;51846;48.692;2.382;2023-10-13T15:39:08;24.73;54.98
65245;DHT22;51846;48.692;2.382;2023-10-13T15:41:36;24.70;55.19
65245;DHT22;51846;48.692;2.382;2023-10-13T15:44:04;24.68;55.22
65245;DHT22;51846;48.692;2.382;2023-10-13T15:46:34;24.63;55.27
65245;DHT22;51846;48.692;2.382;2023-10-13T15:49:00;24.68;55.16
65245;DHT22;51846;48.692;2.382;2023-10-13T15:51:28;24.64;55.42
65245;DHT22;51846;48.692;2.382;2023-10-13T15:53:53;24.64;55.65
65245;DHT22;51846;48.692;2.382;2023-10-13T15:56:18;24.59;55.58
65245;DHT22;51846;48.692;2.382;2023-10-13T16:01:19;24.53;55.73
65245;DHT22;51846;48.692;2.382;2023-10-13T16:03:48;24.53;55.91
65245;DHT22;51846;48.692;2.382;2023-10-13T16:06:21;24.55;56.10
65245;DHT22;51846;48.692;2.382;2023-10-13T16:08:51;24.56;55.76
65245;DHT22;51846;48.692;2.382;2023-10-13T16:11:18;24.50;55.96
65245;DHT22;51846;48.692;2.382;2023-10-13T16:13:47;24.49;56.05
65245;DHT22;51846;48.692;2.382;2023-10-13T16:16:20;24.46;56.14
65245;DHT22;51846;48.692;2.382;2023-10-13T16:18:49;24.44;56.37
65245;DHT22;51846;48.692;2.382;2023-10-13T16:21:15;24.39;56.43
65245;DHT22;51846;48.692;2.382;2023-10-13T16:23:42;24.37;56.52